Time;durP1;ratioP1;P1;durP2;ratioP2;P2;SDS_P1;SDS_P2;PMS_P1;PMS_P2;Temp;Humidity;BMP_temperature;BMP_pressure;BME280_temperature;BME280_humidity;BME280_pressure;Samples;Min_cycle;Max_cycle;Signal;HPM_P1;HPM_P2
2022/01/08 00:00:29;;;;;;;;;;;4.90;99.90;;;4.71;100.00;100026.97;4974044;28;20002;-76
2022/01/08 00:02:56;;;;;;;;;;;7.10;99.90;;;4.72;100.00;100020.03;4967499;28;20374;-77
2022/01/08 00:05:23;;;;;;;;;;;4.90;99.90;;;4.79;100.00;100020.00;4969972;28;20457;-76
2022/01/08 00:07:51;;;;;;;;;;;5.10;99.90;;;4.67;100.00;100012.22;4946337;28;19935;-75
2022/01/08 00:10:18;;;;;;;;;;;4.80;99.90;;;4.71;100.00;100006.13;4967290;28;19930;-76
2022/01/08 00:12:45;;;;;;;;;;;6.40;99.90;;;4.76;100.00;99998.28;4946274;28;19942;-75
2022/01/08 00:15:12;;;;;;;;;;;5.00;99.90;;;4.83;100.00;100003.44;4944733;28;20315;-76
2022/01/08 00:17:39;;;;;;;;;;;5.10;99.90;;;4.85;100.00;99994.75;4955232;28;20439;-75
2022/01/08 00:20:08;;;;;;;;;;;5.10;99.90;;;4.85;100.00;99994.75;4966065;28;20407;-75
2022/01/08 00:22:35;;;;;;;;;;;5.10;99.90;;;4.76;100.00;99980.91;4942552;28;19934;-75
2022/01/08 00:25:03;;;;;;;;;;;4.90;99.90;;;4.83;100.00;99977.38;4925478;29;19942;-75
2022/01/08 00:27:32;;;;;;;;;;;5.10;99.90;;;4.83;100.00;99973.88;4944229;28;19934;-75
2022/01/08 00:30:00;;;;;;;;;;;7.90;99.90;;;4.82;100.00;99974.75;4950168;28;19937;-75
2022/01/08 00:32:27;;;;;;;;;;;5.00;99.90;;;4.87;100.00;99962.59;4936144;28;19930;-75
2022/01/08 00:34:54;;;;;;;;;;;7.80;99.90;;;4.81;100.00;99953.06;4943577;28;19933;-75
2022/01/08 00:37:20;;;;;;;;;;;6.20;99.90;;;4.85;100.00;99950.44;4943443;28;19934;-75
2022/01/08 00:39:48;;;;;;;;;;;7.70;99.90;;;4.81;100.00;99945.25;4944317;28;20276;-76
2022/01/08 00:42:15;;;;;;;;;;;5.00;99.90;;;4.74;100.00;99940.09;4965985;28;19930;-74
2022/01/08 00:44:42;;;;;;;;;;;4.80;99.90;;;4.78;100.00;99941.78;4968378;28;19937;-76
2022/01/08 00:47:13;;;;;;;;;;;7.20;99.90;;;4.73;100.00;99934.00;4940677;29;19953;-76
2022/01/08 00:49:40;;;;;;;;;;;6.00;99.90;;;4.76;100.00;99928.78;4941219;29;19934;-77
2022/01/08 00:52:06;;;;;;;;;;;4.80;99.90;;;4.72;100.00;99924.44;4940583;28;19935;-75
2022/01/08 00:54:35;;;;;;;;;;;5.40;99.90;;;4.71;100.00;99925.31;4943160;28;20404;-79
2022/01/08 00:57:06;;;;;;;;;;;6.40;99.90;;;4.68;100.00;99912.31;4934030;28;20403;-78
2022/01/08 00:59:54;;;;;;;;;;;4.90;99.90;;;4.67;100.00;99913.19;4949319;29;20012;-78
2022/01/08 01:02:21;;;;;;;;;;;4.80;99.90;;;4.68;100.00;99905.38;4927050;29;19931;-78
2022/01/08 01:04:48;;;;;;;;;;;4.80;99.90;;;4.68;100.00;99894.97;4913603;29;19961;-78
2022/01/08 01:07:15;;;;;;;;;;;7.50;99.90;;;4.65;100.00;99888.91;4926550;29;19930;-79
2022/01/08 01:09:42;;;;;;;;;;;7.00;99.90;;;4.69;100.00;99890.59;4917984;29;19939;-79
2022/01/08 01:12:09;;;;;;;;;;;4.60;99.90;;;4.66;100.00;99877.59;4975882;28;19926;-79
2022/01/08 01:14:47;;;;;;;;;;;6.30;99.90;;;4.67;100.00;99863.69;4975439;28;19940;-79
2022/01/08 01:17:32;;;;;;;;;;;4.60;99.90;;;4.66;100.00;99864.56;4937045;28;19931;-79
2022/01/08 01:19:59;;;;;;;;;;;5.80;99.90;;;4.64;100.00;99855.91;4945048;28;20641;-80
2022/01/08 01:22:30;;;;;;;;;;;5.40;99.90;;;4.64;100.00;99855.91;4951948;28;20021;-78
2022/01/08 01:25:03;;;;;;;;;;;5.10;99.90;;;4.62;100.00;99831.59;4952872;28;20401;-80
2022/01/08 01:30:19;;;;;;;;;;;4.90;99.90;;;4.62;100.00;99829.00;4954838;28;20028;-79
2022/01/08 01:49:10;;;;;;;;;;;6.70;99.90;;;4.62;100.00;99793.34;4915962;29;19931;-80
2022/01/08 01:51:37;;;;;;;;;;;4.70;99.90;;;4.60;100.00;99792.50;4930059;29;20013;-80
2022/01/08 01:54:04;;;;;;;;;;;6.60;99.90;;;4.62;100.00;99785.53;4928270;29;19935;-79
2022/01/08 01:56:31;;;;;;;;;;;4.50;99.90;;;4.62;100.00;99780.31;4930709;29;20347;-79
2022/01/08 01:58:58;;;;;;;;;;;6.80;99.90;;;4.62;100.00;99776.88;4933044;29;20438;-79
2022/01/08 02:01:25;;;;;;;;;;;4.60;99.90;;;4.63;100.00;99773.38;4933258;29;19984;-79
2022/01/08 02:03:53;;;;;;;;;;;6.10;99.90;;;4.57;100.00;99771.69;4947606;29;19938;-80
2022/01/08 02:06:20;;;;;;;;;;;4.70;99.90;;;4.57;100.00;99771.69;4932626;28;20042;-80
2022/01/08 02:08:47;;;;;;;;;;;6.20;99.90;;;4.61;100.00;99768.19;4949396;29;20474;-80
2022/01/08 02:11:17;;;;;;;;;;;4.60;99.90;;;4.53;100.00;99764.78;4949571;29;19934;-79
2022/01/08 02:13:44;;;;;;;;;;;5.60;99.90;;;4.53;100.00;99767.41;4931422;29;20021;-81
2022/01/08 02:16:17;;;;;;;;;;;4.90;99.90;;;4.51;100.00;99772.59;4948514;29;19927;-80
2022/01/08 02:18:46;;;;;;;;;;;5.40;99.90;;;4.56;100.00;99763.88;4918695;29;19935;-80
2022/01/08 02:21:14;;;;;;;;;;;4.40;99.90;;;4.54;100.00;99746.53;4933946;29;19981;-81
2022/01/08 02:23:42;;;;;;;;;;;8.10;99.90;;;4.52;100.00;99753.50;4932029;29;20415;-79
2022/01/08 02:26:11;;;;;;;;;;;4.70;99.90;;;4.47;100.00;99742.25;4916766;28;19944;-79
2022/01/08 02:28:39;;;;;;;;;;;7.10;99.90;;;4.45;100.00;99746.63;4932720;29;19930;-80
2022/01/08 02:31:06;;;;;;;;;;;6.60;99.90;;;4.44;100.00;99742.25;4948456;29;19927;-80
2022/01/08 02:33:33;;;;;;;;;;;4.70;99.90;;;4.43;100.00;99747.50;4932263;29;19977;-80
2022/01/08 02:36:05;;;;;;;;;;;4.50;99.90;;;4.38;100.00;99739.72;4932956;29;20383;-78
2022/01/08 02:38:33;;;;;;;;;;;5.20;99.90;;;4.44;100.00;99750.06;4933477;29;20022;-79
2022/01/08 02:41:03;;;;;;;;;;;8.30;99.90;;;4.54;100.00;99730.88;4932517;29;19930;-79
2022/01/08 02:43:34;;;;;;;;;;;7.50;99.90;;;4.51;100.00;99730.03;4946988;28;19961;-78
2022/01/08 02:46:01;;;;;;;;;;;6.70;99.90;;;4.50;100.00;99742.22;4947341;29;20024;-79
2022/01/08 02:48:28;;;;;;;;;;;4.70;99.90;;;4.52;100.00;99731.78;4931263;29;20050;-80
2022/01/08 02:50:55;;;;;;;;;;;5.70;99.90;;;4.49;100.00;99731.81;4930902;29;20407;-79
2022/01/08 02:53:21;;;;;;;;;;;4.80;99.90;;;4.53;100.00;99733.53;4915167;29;19937;-80
2022/01/08 02:55:51;;;;;;;;;;;4.50;99.90;;;4.56;100.00;99725.69;4948182;28;19931;-79
2022/01/08 02:58:18;;;;;;;;;;;7.00;99.90;;;4.54;100.00;99733.50;4932169;29;19938;-80
2022/01/08 03:00:45;;;;;;;;;;;7.40;99.90;;;4.49;100.00;99724.00;4932787;29;20120;-79
2022/01/08 03:03:13;;;;;;;;;;;4.90;99.90;;;4.50;100.00;99726.59;4915742;29;19942;-81
2022/01/08 03:05:41;;;;;;;;;;;4.70;99.90;;;4.47;100.00;99711.00;4932978;29;20451;-82
2022/01/08 03:08:07;;;;;;;;;;;4.80;99.90;;;4.46;100.00;99719.69;4932425;29;19930;-81
2022/01/08 03:10:34;;;;;;;;;;;4.70;99.90;;;4.48;100.00;99725.75;4948318;29;19941;-80
2022/01/08 03:13:02;;;;;;;;;;;6.90;99.90;;;4.44;100.00;99713.59;4915679;28;19938;-78
2022/01/08 03:15:32;;;;;;;;;;;4.70;99.90;;;4.45;100.00;99724.91;4915763;28;19961;-79
2022/01/08 03:17:59;;;;;;;;;;;2.40;99.90;;;4.43;100.00;99724.06;4931654;29;19930;-81
2022/01/08 03:20:26;;;;;;;;;;;4.70;99.90;;;4.47;100.00;99724.03;4936078;29;20489;-80
2022/01/08 03:23:00;;;;;;;;;;;6.50;99.90;;;4.40;100.00;99712.78;4932707;29;19931;-80
2022/01/08 03:25:28;;;;;;;;;;;4.40;99.90;;;4.43;100.00;99727.50;4932766;29;19941;-80
2022/01/08 03:27:55;;;;;;;;;;;5.70;99.90;;;4.46;100.00;99722.28;4931832;29;19926;-80
2022/01/08 03:30:24;;;;;;;;;;;4.50;99.90;;;4.50;100.00;99733.53;4916615;29;20388;-80
2022/01/08 03:32:52;;;;;;;;;;;7.00;99.90;;;4.42;100.00;99725.78;4931515;29;20492;-80
2022/01/08 03:35:19;;;;;;;;;;;4.70;99.90;;;4.47;100.00;99730.97;4920738;29;20593;-81
2022/01/08 03:37:47;;;;;;;;;;;6.30;99.90;;;4.42;100.00;99728.38;4929422;29;20510;-79
2022/01/08 03:40:14;;;;;;;;;;;6.30;99.90;;;4.40;100.00;99737.97;4928918;29;19931;-79
2022/01/08 03:42:42;;;;;;;;;;;5.60;99.90;;;4.42;100.00;99727.53;4928495;29;20497;-80
2022/01/08 03:45:09;;;;;;;;;;;7.30;99.90;;;4.39;100.00;99744.06;4928438;28;19931;-80
2022/01/08 03:50:16;;;;;;;;;;;6.70;99.90;;;4.34;100.00;99736.28;4914458;29;20057;-81
2022/01/08 03:52:45;;;;;;;;;;;7.40;99.90;;;4.34;100.00;99725.84;5029836;28;19930;-81
2022/01/08 03:55:13;;;;;;;;;;;4.90;99.90;;;4.38;100.00;99722.38;4930850;29;20311;-80
2022/01/08 03:57:40;;;;;;;;;;;5.50;99.90;;;4.34;100.00;99746.69;4915363;29;20519;-82
2022/01/08 04:00:08;;;;;;;;;;;7.10;99.90;;;4.28;100.00;99735.47;4931081;29;19937;-80
2022/01/08 04:02:38;;;;;;;;;;;4.60;99.90;;;4.33;100.00;99723.28;4931078;29;20403;-79
2022/01/08 04:05:05;;;;;;;;;;;6.50;99.90;;;4.31;100.00;99727.66;4947147;29;19960;-81
2022/01/08 04:07:32;;;;;;;;;;;4.60;99.90;;;4.29;100.00;99735.47;4947476;28;20383;-80
2022/01/08 04:09:59;;;;;;;;;;;7.00;99.90;;;4.21;100.00;99748.53;4915281;29;19967;-80
2022/01/08 04:12:39;;;;;;;;;;;6.50;99.90;;;4.20;100.00;99741.59;4914731;28;19931;-80
2022/01/08 04:15:20;;;;;;;;;;;4.50;99.90;;;4.22;100.00;99750.25;4946258;29;19931;-80
2022/01/08 04:17:48;;;;;;;;;;;2.70;99.90;;;4.28;100.00;99761.50;4933498;29;19931;-81
2022/01/08 04:20:15;;;;;;;;;;;4.20;99.90;;;4.18;100.00;99761.59;4931600;29;19941;-80
2022/01/08 04:22:48;;;;;;;;;;;6.50;99.90;;;4.23;100.00;99754.59;4914276;29;19984;-80
2022/01/08 04:25:17;;;;;;;;;;;5.20;99.90;;;4.16;100.00;99768.56;4931146;29;19941;-81
2022/01/08 04:27:44;;;;;;;;;;;6.50;99.90;;;4.20;100.00;99765.03;4932252;29;19934;-79
2022/01/08 04:30:11;;;;;;;;;;;6.20;99.90;;;4.20;100.00;99778.06;4934730;29;19956;-79
2022/01/08 04:32:39;;;;;;;;;;;4.60;99.90;;;4.13;100.00;99781.56;4933753;29;19931;-78
2022/01/08 04:35:07;;;;;;;;;;;5.10;99.90;;;4.21;100.00;99795.41;4948932;29;19934;-79
2022/01/08 04:37:34;;;;;;;;;;;4.50;99.90;;;4.20;100.00;99792.81;4949114;28;20087;-80
2022/01/08 04:40:02;;;;;;;;;;;6.90;99.90;;;4.10;100.00;99812.84;4935011;29;19931;-81
2022/01/08 04:42:28;;;;;;;;;;;5.70;99.90;;;4.15;100.00;99821.50;4934081;29;19938;-81
2022/01/08 04:44:55;;;;;;;;;;;4.40;99.90;;;4.10;100.00;99818.94;4933906;29;19980;-80
2022/01/08 04:47:22;;;;;;;;;;;5.00;99.90;;;4.11;100.00;99843.22;4935613;29;19931;-79
2022/01/08 04:49:49;;;;;;;;;;;6.50;99.90;;;4.20;100.00;99860.50;4950911;29;19966;-80
2022/01/08 04:52:16;;;;;;;;;;;7.50;99.90;;;4.03;100.00;99871.03;4934359;29;19930;-79
2022/01/08 04:54:46;;;;;;;;;;;6.60;99.90;;;3.92;100.00;99871.94;4934093;29;19930;-81
2022/01/08 04:57:13;;;;;;;;;;;5.10;99.90;;;3.94;100.00;99887.56;4920865;29;19931;-80
2022/01/08 04:59:40;;;;;;;;;;;6.90;99.90;;;3.89;100.00;99897.13;4935095;29;20526;-81
2022/01/08 05:02:07;;;;;;;;;;;7.10;99.90;;;3.91;100.00;99905.81;4916700;29;19934;-80
2022/01/08 05:04:34;;;;;;;;;;;4.00;99.90;;;3.82;100.00;99904.97;4950158;29;19930;-80
2022/01/08 05:07:01;;;;;;;;;;;7.80;99.90;;;3.87;100.00;99923.16;4950459;28;19941;-79
2022/01/08 05:09:28;;;;;;;;;;;3.00;99.90;;;3.82;100.00;99940.53;4950857;29;20403;-78
2022/01/08 05:11:55;;;;;;;;;;;3.90;99.90;;;3.63;100.00;99937.13;4934282;29;19930;-79
2022/01/08 05:14:23;;;;;;;;;;;3.90;99.90;;;3.60;100.00;99935.38;4934050;29;19931;-80
2022/01/08 05:16:57;;;;;;;;;;;6.10;99.90;;;3.58;100.00;99947.53;4934741;29;20474;-80
2022/01/08 05:19:37;;;;;;;;;;;6.30;99.90;;;3.57;100.00;99963.13;4951200;28;19976;-79
2022/01/08 05:22:05;;;;;;;;;;;5.00;99.90;;;3.55;100.00;99974.41;4950583;28;20383;-79
2022/01/08 05:24:36;;;;;;;;;;;3.90;99.90;;;3.60;100.00;99979.63;4933613;29;20041;-80
2022/01/08 05:27:05;;;;;;;;;;;4.00;99.90;;;3.57;100.00;99989.16;4934094;29;20445;-80
2022/01/08 05:29:32;;;;;;;;;;;4.10;99.90;;;3.54;100.00;100000.44;4935253;28;20319;-79
2022/01/08 05:32:01;;;;;;;;;;;5.50;99.90;;;3.59;100.00;100018.63;4935125;29;19941;-80
2022/01/08 05:34:28;;;;;;;;;;;3.70;99.90;;;3.59;100.00;100024.72;4949140;28;19935;-80
2022/01/08 05:36:55;;;;;;;;;;;4.00;99.90;;;3.62;100.00;100037.72;4930639;29;19941;-80
2022/01/08 05:39:22;;;;;;;;;;;3.80;99.90;;;3.61;100.00;100048.13;4934925;29;19936;-79
2022/01/08 05:41:49;;;;;;;;;;;3.80;99.90;;;3.62;100.00;100057.69;4949593;29;19937;-80
2022/01/08 05:44:16;;;;;;;;;;;6.50;99.90;;;3.49;100.00;100068.06;4916792;29;19938;-80
2022/01/08 05:46:45;;;;;;;;;;;3.80;99.90;;;3.56;100.00;100066.34;4952349;28;20331;-80
2022/01/08 05:49:14;;;;;;;;;;;6.80;99.90;;;3.58;100.00;100081.94;4953277;28;19930;-79
2022/01/08 05:51:41;;;;;;;;;;;6.80;99.90;;;3.58;100.00;100094.94;4968948;28;19930;-80
2022/01/08 05:54:08;;;;;;;;;;;3.80;99.90;;;3.62;100.00;100097.56;4951191;28;19975;-79
2022/01/08 05:56:35;;;;;;;;;;;5.60;99.90;;;3.62;100.00;100105.34;4952751;28;19930;-81
2022/01/08 05:59:03;;;;;;;;;;;6.10;99.90;;;3.60;100.00;100125.31;4952515;28;19930;-80
2022/01/08 06:01:32;;;;;;;;;;;6.80;99.90;;;3.58;100.00;100123.56;4967343;28;20402;-79
2022/01/08 06:03:59;;;;;;;;;;;3.80;99.90;;;3.66;100.00;100135.72;4951768;28;19926;-79
2022/01/08 06:06:26;;;;;;;;;;;3.80;99.90;;;3.68;100.00;100141.81;4934514;28;19930;-80
2022/01/08 06:08:53;;;;;;;;;;;5.00;99.90;;;3.74;100.00;100145.28;4978408;28;19930;-78
2022/01/08 06:11:20;;;;;;;;;;;3.90;99.90;;;3.73;100.00;100152.19;4929374;29;19930;-80
2022/01/08 06:13:47;;;;;;;;;;;3.90;99.90;;;3.74;100.00;100160.88;4912856;28;19931;-78
2022/01/08 06:16:14;;;;;;;;;;;3.90;99.90;;;3.59;100.00;100169.53;4944743;29;19926;-78
2022/01/08 06:18:41;;;;;;;;;;;3.90;99.90;;;3.61;100.00;100179.09;4956705;28;19938;-79
2022/01/08 06:21:08;;;;;;;;;;;5.90;99.90;;;3.69;100.00;100185.19;4971247;28;20407;-78
2022/01/08 06:23:35;;;;;;;;;;;3.70;99.90;;;3.72;100.00;100181.69;4947551;29;19961;-79
2022/01/08 06:26:02;;;;;;;;;;;5.20;99.90;;;3.64;100.00;100180.84;4946157;29;20615;-79
2022/01/08 06:28:29;;;;;;;;;;;1.60;99.90;;;3.77;100.00;100195.59;4973873;28;19938;-81
2022/01/08 06:30:55;;;;;;;;;;;5.80;99.90;;;3.76;100.00;100206.00;4956388;28;20555;-79
2022/01/08 06:33:23;;;;;;;;;;;4.00;99.90;;;3.83;100.00;100215.56;4972129;28;19930;-79
2022/01/08 06:35:51;;;;;;;;;;;5.50;99.90;;;3.84;100.00;100219.91;4948388;29;19938;-78
2022/01/08 06:38:18;;;;;;;;;;;3.70;99.90;;;3.89;100.00;100218.16;4932596;29;19961;-78
2022/01/08 06:40:45;;;;;;;;;;;4.80;99.90;;;3.89;100.00;100222.47;4948032;28;19934;-79
2022/01/08 06:43:13;;;;;;;;;;;3.80;99.90;;;3.93;100.00;100234.66;4954169;28;19945;-78
2022/01/08 06:45:40;;;;;;;;;;;7.10;99.90;;;3.92;100.00;100238.13;4949166;28;20605;-79
2022/01/08 06:48:06;;;;;;;;;;;7.30;99.90;;;3.71;100.00;100233.75;4955878;28;20395;-79
2022/01/08 06:50:34;;;;;;;;;;;5.00;99.90;;;3.87;100.00;100234.63;4925581;29;19974;-80
2022/01/08 06:53:01;;;;;;;;;;;3.70;99.90;;;3.89;100.00;100252.00;4946399;29;19953;-78
2022/01/08 06:55:27;;;;;;;;;;;5.00;99.90;;;3.69;100.00;100245.03;4970758;28;19930;-79
2022/01/08 06:57:55;;;;;;;;;;;4.00;99.90;;;3.70;100.00;100251.09;4947803;28;19930;-79
2022/01/08 07:00:23;;;;;;;;;;;5.10;99.90;;;3.75;100.00;100258.91;4965125;28;19937;-77
2022/01/08 07:02:50;;;;;;;;;;;5.20;99.90;;;3.73;100.00;100258.03;4950585;28;19937;-77
2022/01/08 07:05:17;;;;;;;;;;;5.90;99.90;;;3.72;100.00;100266.72;4948321;29;19930;-77
2022/01/08 07:07:44;;;;;;;;;;;3.90;99.90;;;3.68;100.00;100260.63;4948465;28;19930;-78
2022/01/08 07:10:10;;;;;;;;;;;3.90;99.90;;;3.68;100.00;100271.91;4947766;29;19931;-78
2022/01/08 07:12:38;;;;;;;;;;;3.80;99.90;;;3.63;100.00;100286.63;4948263;29;20424;-77
2022/01/08 07:15:05;;;;;;;;;;;3.80;99.90;;;3.65;100.00;100284.91;4949680;29;19972;-78
2022/01/08 07:17:32;;;;;;;;;;;4.00;99.90;;;3.61;100.00;100285.75;4933727;29;19931;-78
2022/01/08 07:19:59;;;;;;;;;;;3.90;99.90;;;3.62;100.00;100282.28;4949113;28;19927;-77
2022/01/08 07:22:28;;;;;;;;;;;4.10;99.90;;;3.55;100.00;100293.56;4934654;28;21558;-77
2022/01/08 07:24:54;;;;;;;;;;;5.00;99.90;;;3.60;100.00;100304.00;4966897;28;20021;-77
2022/01/08 07:27:21;;;;;;;;;;;4.00;99.90;;;3.68;100.00;100317.88;4949812;28;19930;-77
2022/01/08 07:29:48;;;;;;;;;;;3.80;99.90;;;3.63;100.00;100322.19;4966394;28;19937;-78
2022/01/08 07:32:15;;;;;;;;;;;4.10;99.90;;;3.63;100.00;100322.19;4961978;28;19934;-78
2022/01/08 07:34:42;;;;;;;;;;;3.80;99.90;;;3.53;100.00;100332.56;4947064;29;19930;-78
2022/01/08 07:37:09;;;;;;;;;;;6.20;99.90;;;3.55;100.00;100345.59;4932728;29;19938;-78
2022/01/08 07:39:37;;;;;;;;;;;6.60;99.90;;;3.58;100.00;100363.81;4959743;28;19937;-79
2022/01/08 07:42:04;;;;;;;;;;;3.70;99.90;;;3.44;100.00;100366.34;4971070;28;19937;-77
2022/01/08 07:44:32;;;;;;;;;;;3.80;99.90;;;3.50;100.00;100374.19;4970531;28;20024;-77
2022/01/08 07:47:00;;;;;;;;;;;4.90;99.90;;;3.46;100.00;100382.84;4967991;28;19926;-77
2022/01/08 07:49:27;;;;;;;;;;;4.70;99.90;;;3.50;100.00;100388.91;4948441;28;19937;-78
2022/01/08 07:51:54;;;;;;;;;;;3.70;99.90;;;3.49;100.00;100387.16;4946972;29;19938;-77
2022/01/08 07:54:21;;;;;;;;;;;3.80;99.90;;;3.46;100.00;100394.97;4962849;28;19930;-78
2022/01/08 07:56:48;;;;;;;;;;;3.70;99.90;;;3.45;100.00;100404.50;4964218;28;19930;-77
2022/01/08 07:59:14;;;;;;;;;;;5.60;99.90;;;3.42;100.00;100406.22;4950846;28;19976;-78
2022/01/08 08:01:41;;;;;;;;;;;5.60;99.90;;;3.47;100.00;100412.31;4947865;28;19930;-78
2022/01/08 08:04:08;;;;;;;;;;;3.70;99.90;;;3.48;100.00;100414.03;4951798;29;20037;-78
2022/01/08 08:06:47;;;;;;;;;;;3.70;99.90;;;3.47;100.00;100413.19;4937472;29;19938;-78
2022/01/08 08:09:14;;;;;;;;;;;3.60;99.90;;;3.49;100.00;100413.19;4967275;28;19937;-77
2022/01/08 08:11:42;;;;;;;;;;;4.80;99.90;;;3.47;100.00;100423.59;4969314;28;19934;-76
2022/01/08 08:14:09;;;;;;;;;;;4.90;99.90;;;3.52;100.00;100429.69;4956433;28;19935;-77
2022/01/08 08:16:36;;;;;;;;;;;3.70;99.90;;;3.52;100.00;100432.28;4940171;29;19934;-78
2022/01/08 08:19:03;;;;;;;;;;;3.80;99.90;;;3.51;100.00;100427.06;4940844;29;19957;-77
2022/01/08 08:21:30;;;;;;;;;;;6.40;99.90;;;3.55;100.00;100429.69;4958141;28;20343;-78
2022/01/08 08:23:57;;;;;;;;;;;6.20;99.90;;;3.59;100.00;100434.91;4955697;28;20049;-78
2022/01/08 08:26:24;;;;;;;;;;;3.60;99.90;;;3.66;100.00;100431.50;4971937;28;19937;-78
2022/01/08 08:28:51;;;;;;;;;;;4.50;99.90;;;3.61;100.00;100439.28;4972716;28;20463;-78
2022/01/08 08:31:18;;;;;;;;;;;5.40;99.90;;;3.64;100.00;100443.63;4956319;29;20730;-78
2022/01/08 08:33:44;;;;;;;;;;;6.30;99.90;;;3.59;100.00;100453.13;4955558;28;20053;-79
2022/01/08 08:36:11;;;;;;;;;;;3.90;99.90;;;3.63;100.00;100447.09;4972360;28;20005;-78
2022/01/08 08:38:38;;;;;;;;;;;5.60;99.90;;;3.66;100.00;100447.97;4958038;28;19938;-78
2022/01/08 08:41:05;;;;;;;;;;;3.80;99.90;;;3.71;100.00;100466.22;4974091;28;19930;-78
2022/01/08 08:43:32;;;;;;;;;;;4.20;99.90;;;3.70;100.00;100454.06;4955194;29;19930;-78
2022/01/08 08:45:59;;;;;;;;;;;6.30;99.90;;;3.72;100.00;100464.50;4955988;28;20379;-77
2022/01/08 08:48:26;;;;;;;;;;;6.00;99.90;;;3.78;100.00;100474.94;4956357;29;19934;-78
2022/01/08 08:50:53;;;;;;;;;;;6.20;99.90;;;3.77;100.00;100474.09;4958206;28;19950;-78
2022/01/08 08:53:20;;;;;;;;;;;4.10;99.90;;;3.84;100.00;100490.59;4956222;28;19933;-77
2022/01/08 08:55:48;;;;;;;;;;;4.00;99.90;;;3.80;100.00;100475.81;4954990;28;19930;-78
2022/01/08 08:58:15;;;;;;;;;;;5.30;99.90;;;3.81;100.00;100477.53;4970261;28;19930;-77
2022/01/08 09:00:42;;;;;;;;;;;4.10;99.90;;;3.86;100.00;100486.28;4972049;28;19940;-78
2022/01/08 09:03:09;;;;;;;;;;;5.00;99.90;;;3.87;100.00;100484.53;4956326;29;20382;-77
2022/01/08 09:05:36;;;;;;;;;;;6.80;99.90;;;3.82;100.00;100489.69;4954942;28;19938;-77
2022/01/08 09:08:04;;;;;;;;;;;4.70;99.90;;;3.86;100.00;100486.28;4956406;28;19938;-79
2022/01/08 09:10:33;;;;;;;;;;;4.10;99.90;;;3.79;100.00;100492.28;4967070;28;19966;-79
2022/01/08 09:12:59;;;;;;;;;;;7.00;99.90;;;3.75;100.00;100480.13;4955448;28;19926;-79
2022/01/08 09:15:27;;;;;;;;;;;3.90;99.90;;;3.90;100.00;100487.13;4951852;28;19934;-77
2022/01/08 09:17:57;;;;;;;;;;;5.10;99.90;;;3.92;100.00;100491.50;4981270;28;19930;-78
2022/01/08 09:20:27;;;;;;;;;;;4.70;99.90;;;3.99;100.00;100501.97;4953965;29;19954;-77
2022/01/08 09:22:55;;;;;;;;;;;4.50;99.90;;;3.90;100.00;100492.34;4976541;28;19930;-77
2022/01/08 09:25:22;;;;;;;;;;;4.10;99.90;;;3.92;100.00;100501.91;4921890;29;20355;-78
2022/01/08 09:27:49;;;;;;;;;;;5.60;99.90;;;3.94;100.00;100510.59;4953792;28;19927;-77
2022/01/08 09:30:16;;;;;;;;;;;4.20;99.90;;;3.93;100.00;100508.00;4967384;28;20464;-78
2022/01/08 09:32:45;;;;;;;;;;;4.30;99.90;;;4.06;100.00;100516.75;4946600;29;20306;-77
2022/01/08 09:35:14;;;;;;;;;;;4.20;99.90;;;4.05;100.00;100515.00;4956922;28;20327;-78
2022/01/08 09:37:41;;;;;;;;;;;5.20;99.90;;;4.15;100.00;100518.53;4969132;28;20067;-77
2022/01/08 09:40:12;;;;;;;;;;;4.40;99.90;;;4.17;100.00;100516.78;4954421;29;19969;-76
2022/01/08 09:42:43;;;;;;;;;;;4.40;99.90;;;4.17;100.00;100519.41;4950173;29;19934;-77
2022/01/08 09:45:11;;;;;;;;;;;4.30;99.90;;;4.17;100.00;100519.41;4949217;29;19937;-77
2022/01/08 09:47:38;;;;;;;;;;;5.10;99.90;;;4.12;100.00;100521.97;4950621;28;20026;-77
2022/01/08 09:50:06;;;;;;;;;;;4.20;99.90;;;4.25;100.00;100517.72;4978934;28;20608;-77
2022/01/08 09:52:34;;;;;;;;;;;4.40;99.90;;;4.31;100.00;100519.47;4953826;29;20322;-77
2022/01/08 09:55:03;;;;;;;;;;;4.30;99.90;;;4.30;100.00;100523.81;4950286;29;19967;-77
2022/01/08 09:57:30;;;;;;;;;;;4.70;99.90;;;4.32;100.00;100524.69;4964398;28;20675;-77
2022/01/08 09:59:57;;;;;;;;;;;5.10;99.90;;;4.38;100.00;100516.03;4954042;29;20033;-77
2022/01/08 10:02:25;;;;;;;;;;;5.60;99.90;;;4.41;100.00;100513.41;4968581;28;19938;-79
2022/01/08 10:04:52;;;;;;;;;;;4.60;99.90;;;4.47;100.00;100513.47;4948500;28;19937;-80
2022/01/08 10:07:22;;;;;;;;;;;4.40;99.90;;;4.48;100.00;100514.31;4963299;28;20331;-78
2022/01/08 10:10:17;;;;;;;;;;;5.70;99.90;;;4.51;100.00;100522.13;4948688;28;19931;-79
2022/01/08 10:12:58;;;;;;;;;;;4.60;99.90;;;4.58;100.00;100520.41;4954605;28;20323;-78
2022/01/08 10:18:28;;;;;;;;;;;6.30;99.90;;;4.66;100.00;100519.56;4950022;28;19980;-76
2022/01/08 10:20:56;;;;;;;;;;;5.00;99.90;;;4.57;100.00;100511.75;4947973;29;19938;-79
2022/01/08 10:23:25;;;;;;;;;;;7.20;99.90;;;4.61;100.00;100510.03;4936208;29;20335;-79
2022/01/08 10:26:08;;;;;;;;;;;4.20;99.90;;;4.76;100.00;100494.44;4926930;28;19937;-80
2022/01/08 10:28:35;;;;;;;;;;;4.80;99.90;;;4.73;100.00;100490.94;4934425;29;19930;-81
2022/01/08 10:31:23;;;;;;;;;;;6.30;99.90;;;4.85;100.00;100484.88;4947832;29;19966;-82
2022/01/08 10:33:53;;;;;;;;;;;4.80;99.90;;;4.90;100.00;100472.69;4928837;29;20383;-78
2022/01/08 10:36:31;;;;;;;;;;;5.00;99.90;;;4.80;100.00;100467.50;4932452;28;19927;-78
2022/01/08 10:39:02;;;;;;;;;;;7.90;99.90;;;4.77;100.00;100477.91;4945413;28;20029;-79
2022/01/08 10:41:29;;;;;;;;;;;5.60;99.90;;;4.81;100.00;100470.94;4932387;28;19926;-79
2022/01/08 10:44:35;;;;;;;;;;;6.60;99.90;;;4.89;100.00;100486.59;4914048;28;20041;-80
2022/01/08 10:47:13;;;;;;;;;;;5.10;99.80;;;4.91;100.00;100475.31;4928839;29;19973;-81
2022/01/08 10:49:46;;;;;;;;;;;4.90;99.90;;;4.71;100.00;100479.66;4916025;28;19926;-78
2022/01/08 10:52:18;;;;;;;;;;;5.10;99.20;;;4.73;100.00;100470.94;4928866;28;19931;-78
2022/01/08 10:54:56;;;;;;;;;;;4.80;99.90;;;4.95;100.00;100468.38;4914644;28;20711;-78
2022/01/08 10:57:37;;;;;;;;;;;5.00;99.90;;;5.10;100.00;100472.72;4919112;29;19970;-78
2022/01/08 11:00:12;;;;;;;;;;;5.20;99.90;;;5.15;100.00;100462.28;4910458;29;20013;-80
2022/01/08 11:02:41;;;;;;;;;;;5.30;99.90;;;5.14;100.00;100463.16;4910502;28;19926;-79
2022/01/08 11:05:10;;;;;;;;;;;5.20;99.90;;;5.00;100.00;100458.81;4942161;29;20446;-79
2022/01/08 11:07:40;;;;;;;;;;;4.40;99.90;;;4.98;100.00;100455.34;4956514;28;19945;-78
2022/01/08 11:10:15;;;;;;;;;;;6.10;99.90;;;5.02;100.00;100453.59;4963333;28;19984;-79
2022/01/08 11:12:45;;;;;;;;;;;5.70;99.90;;;5.00;100.00;100444.91;4939847;28;19930;-80
2022/01/08 11:17:45;;;;;;;;;;;6.50;99.90;;;5.04;100.00;100444.03;4960313;28;20342;-81
2022/01/08 11:20:12;;;;;;;;;;;5.50;99.90;;;4.98;100.00;100434.47;4986954;28;19933;-80
2022/01/08 11:22:45;;;;;;;;;;;5.60;99.90;;;4.93;100.00;100431.84;4951236;28;19986;-82
2022/01/08 11:25:16;;;;;;;;;;;5.10;99.90;;;4.89;100.00;100417.09;4936016;29;20429;-80
2022/01/08 11:28:11;;;;;;;;;;;4.40;99.90;;;5.09;100.00;100435.34;4928562;29;19931;-82
2022/01/08 11:30:40;;;;;;;;;;;5.50;99.90;;;5.17;100.00;100431.84;4937972;29;19931;-82
2022/01/08 11:35:44;;;;;;;;;;;7.50;99.90;;;5.11;100.00;100423.16;4950809;28;20244;-79
2022/01/08 11:38:13;;;;;;;;;;;7.50;99.90;;;5.19;100.00;100417.06;4936082;29;19930;-79
2022/01/08 11:40:42;;;;;;;;;;;7.70;99.90;;;5.16;100.00;100424.91;4947544;28;19927;-77
2022/01/08 11:43:11;;;;;;;;;;;7.00;99.90;;;5.31;100.00;100405.75;4929646;29;20013;-78
2022/01/08 11:45:43;;;;;;;;;;;5.40;99.90;;;5.28;100.00;100408.34;4943435;29;19964;-78
2022/01/08 11:48:11;;;;;;;;;;;5.20;99.90;;;5.24;100.00;100394.47;4931684;29;19927;-79
2022/01/08 11:50:38;;;;;;;;;;;5.60;99.90;;;5.34;100.00;100390.94;4928754;29;20028;-77
2022/01/08 11:53:14;;;;;;;;;;;5.30;99.90;;;5.33;100.00;100385.75;4914686;29;19933;-80
2022/01/08 11:55:42;;;;;;;;;;;5.50;99.90;;;5.19;100.00;100381.44;4931145;28;19941;-79
2022/01/08 11:58:38;;;;;;;;;;;7.00;99.90;;;5.26;100.00;100379.69;4916435;29;20285;-80